Badminton, United Kingdom
Current Conditions -  °F | °C
As of 3:20 AM on Sunday 23 Nov 2014 (Local Time) from EGGD Reporting Station
Light Rain Light Rain  
Wind Chill: 46°   Ceiling: Unl
Heat Index: 48°   Visibility: 0.18mi
Dew Point: 46°   Wind: 6mph
Humidity: 93%   Direction: 300°WNW
Pressure: 30"   Gusts: NA
Location:  51.54°N, 2.29°W
Report Text: EGGD 230320Z 30005KT 0300 R27/1300 -RA FG BKN000 09/08 Q1016
Loading
Personal Weather Stations






























Interactive Weather Map New forecast layout! Learn more

10-Day Weather Forecast

Advertisements
Track Severe Weather on mobile